Time;durP1;ratioP1;P1;durP2;ratioP2;P2;SDS_P1;SDS_P2;PMS_P1;PMS_P2;Temp;Humidity;BMP_temperature;BMP_pressure;BME280_temperature;BME280_humidity;BME280_pressure;Samples;Min_cycle;Max_cycle;Signal;HPM_P1;HPM_P2
2023/03/01 00:01:21;;;;;;;18.10;13.95;;;;;;;;;;5100317;28;20020;-46
2023/03/01 00:03:53;;;;;;;18.05;12.95;;;;;;;;;;5100749;28;20051;-46
2023/03/01 00:06:20;;;;;;;14.73;12.18;;;;;;;;;;5097369;28;20036;-47
2023/03/01 00:08:54;;;;;;;14.02;11.50;;;;;;;;;;5099433;28;20040;-52
2023/03/01 00:11:25;;;;;;;12.70;10.15;;;;;;;;;;5098079;28;20122;-44
2023/03/01 00:13:53;;;;;;;13.45;11.23;;;;;;;;;;5100109;28;20042;-45
2023/03/01 00:16:33;;;;;;;15.20;11.82;;;;;;;;;;5094696;28;20020;-45
2023/03/01 00:18:59;;;;;;;17.80;12.63;;;;;;;;;;5100404;28;20143;-43
2023/03/01 00:21:25;;;;;;;17.75;13.57;;;;;;;;;;5097517;28;20581;-45
2023/03/01 00:23:51;;;;;;;16.75;12.63;;;;;;;;;;5094088;28;20046;-43
2023/03/01 00:26:18;;;;;;;17.88;12.93;;;;;;;;;;5093341;28;20414;-44
2023/03/01 00:28:50;;;;;;;13.25;11.07;;;;;;;;;;5100756;28;20580;-46
2023/03/01 00:31:19;;;;;;;11.98;10.15;;;;;;;;;;5096849;28;20095;-48
2023/03/01 00:34:00;;;;;;;13.88;11.05;;;;;;;;;;5099210;28;20036;-47
2023/03/01 00:36:28;;;;;;;14.13;10.27;;;;;;;;;;5100858;28;20111;-47
2023/03/01 00:38:57;;;;;;;14.45;10.95;;;;;;;;;;5095923;28;20028;-49
2023/03/01 00:41:23;;;;;;;14.15;11.23;;;;;;;;;;5100318;28;20031;-49
2023/03/01 00:43:58;;;;;;;15.43;11.43;;;;;;;;;;5097358;28;20050;-52
2023/03/01 00:46:26;;;;;;;14.82;11.02;;;;;;;;;;5100292;28;20036;-51
2023/03/01 00:49:01;;;;;;;13.07;10.98;;;;;;;;;;5098772;28;20583;-46
2023/03/01 00:51:29;;;;;;;11.20;9.80;;;;;;;;;;5101705;28;20032;-46
2023/03/01 00:54:02;;;;;;;16.75;12.32;;;;;;;;;;5095346;28;20451;-47
2023/03/01 00:56:27;;;;;;;17.30;11.00;;;;;;;;;;5098783;28;20070;-48
2023/03/01 00:59:04;;;;;;;16.13;11.52;;;;;;;;;;5093065;28;20040;-46
2023/03/01 01:01:30;;;;;;;18.35;12.50;;;;;;;;;;5099046;28;20111;-47
2023/03/01 01:04:12;;;;;;;16.75;12.18;;;;;;;;;;5100020;28;20187;-52
2023/03/01 01:06:42;;;;;;;13.77;11.43;;;;;;;;;;5101326;28;20028;-44
2023/03/01 01:09:09;;;;;;;15.07;12.05;;;;;;;;;;5100359;28;20043;-50
2023/03/01 01:11:48;;;;;;;26.90;15.90;;;;;;;;;;5099843;28;20038;-49
2023/03/01 01:14:20;;;;;;;31.70;20.55;;;;;;;;;;5099561;28;20408;-44
2023/03/01 01:16:52;;;;;;;17.92;13.75;;;;;;;;;;5105531;28;20024;-48
2023/03/01 01:19:17;;;;;;;14.60;11.77;;;;;;;;;;5101929;27;20036;-43
2023/03/01 01:21:43;;;;;;;16.45;10.82;;;;;;;;;;5102545;28;20024;-49
2023/03/01 01:24:14;;;;;;;13.98;11.52;;;;;;;;;;5102836;28;20059;-47
2023/03/01 01:26:40;;;;;;;12.68;11.25;;;;;;;;;;5102232;28;20472;-46
2023/03/01 01:29:06;;;;;;;14.85;11.82;;;;;;;;;;5100873;28;20032;-46
2023/03/01 01:31:32;;;;;;;11.77;10.55;;;;;;;;;;5103042;28;20031;-47
2023/03/01 01:34:12;;;;;;;14.07;11.63;;;;;;;;;;5102864;28;20369;-47
2023/03/01 01:36:37;;;;;;;12.88;10.52;;;;;;;;;;5100785;28;20035;-45
2023/03/01 01:39:12;;;;;;;14.63;10.95;;;;;;;;;;5100218;28;20039;-45
2023/03/01 01:41:39;;;;;;;16.75;10.38;;;;;;;;;;5102379;28;20028;-49
2023/03/01 01:44:13;;;;;;;18.13;12.85;;;;;;;;;;5100844;28;20047;-47
2023/03/01 01:47:04;;;;;;;12.13;10.82;;;;;;;;;;5100924;28;20053;-47
2023/03/01 01:49:39;;;;;;;18.67;12.73;;;;;;;;;;5102411;28;20043;-49
2023/03/01 01:52:04;;;;;;;15.50;11.70;;;;;;;;;;5095178;28;20027;-48
2023/03/01 01:54:39;;;;;;;15.75;12.60;;;;;;;;;;5104264;27;20047;-48
2023/03/01 01:57:11;;;;;;;14.65;11.50;;;;;;;;;;5101760;28;20084;-45
2023/03/01 01:59:36;;;;;;;12.45;10.90;;;;;;;;;;5096481;28;20044;-50
2023/03/01 02:02:03;;;;;;;17.92;10.10;;;;;;;;;;5112877;27;20024;-50
2023/03/01 02:04:30;;;;;;;13.27;10.27;;;;;;;;;;5102458;28;20032;-48
2023/03/01 02:07:14;;;;;;;13.45;10.88;;;;;;;;;;5104696;28;20034;-45
2023/03/01 02:09:43;;;;;;;12.93;10.57;;;;;;;;;;5102565;28;20028;-43
2023/03/01 02:12:12;;;;;;;14.70;11.32;;;;;;;;;;5105617;28;20055;-47
2023/03/01 02:14:37;;;;;;;13.18;10.95;;;;;;;;;;5104945;28;20039;-52
2023/03/01 02:17:09;;;;;;;14.70;10.82;;;;;;;;;;5100058;28;20035;-48
2023/03/01 02:19:41;;;;;;;15.07;10.70;;;;;;;;;;5101263;28;20028;-51
2023/03/01 02:22:29;;;;;;;13.18;10.13;;;;;;;;;;5100405;28;20035;-47
2023/03/01 02:25:04;;;;;;;12.25;11.05;;;;;;;;;;5102941;28;20043;-45
2023/03/01 02:27:45;;;;;;;12.98;9.63;;;;;;;;;;5110562;27;20039;-48
2023/03/01 02:30:22;;;;;;;14.32;10.30;;;;;;;;;;5101932;28;20036;-47
2023/03/01 02:32:48;;;;;;;14.68;11.05;;;;;;;;;;5099805;28;20063;-47
2023/03/01 02:35:17;;;;;;;14.73;11.48;;;;;;;;;;5099373;28;20070;-49
2023/03/01 02:37:43;;;;;;;15.13;11.70;;;;;;;;;;5103283;28;20035;-48
2023/03/01 02:40:15;;;;;;;15.88;11.05;;;;;;;;;;5087111;28;20032;-45
2023/03/01 02:42:51;;;;;;;16.25;10.32;;;;;;;;;;5079698;28;20477;-45
2023/03/01 02:45:17;;;;;;;16.38;11.13;;;;;;;;;;5076473;28;20553;-49
2023/03/01 02:47:49;;;;;;;12.65;9.75;;;;;;;;;;5081064;28;20096;-44
2023/03/01 02:50:50;;;;;;;13.52;11.07;;;;;;;;;;5083217;28;20727;-45
2023/03/01 02:53:25;;;;;;;13.60;10.32;;;;;;;;;;5096494;28;20424;-48
2023/03/01 02:55:53;;;;;;;14.43;10.38;;;;;;;;;;5080139;28;20112;-46
2023/03/01 02:58:19;;;;;;;19.35;11.70;;;;;;;;;;5077329;28;20099;-45
2023/03/01 03:00:46;;;;;;;12.45;10.50;;;;;;;;;;5082909;28;20099;-47
2023/03/01 03:03:20;;;;;;;12.55;10.05;;;;;;;;;;5080251;28;20036;-50
2023/03/01 03:05:48;;;;;;;13.45;10.57;;;;;;;;;;5083551;28;20024;-50
2023/03/01 03:08:23;;;;;;;15.10;9.90;;;;;;;;;;5075784;28;20404;-46
2023/03/01 03:10:49;;;;;;;15.57;11.38;;;;;;;;;;5079692;28;20040;-46
2023/03/01 03:13:28;;;;;;;12.77;9.82;;;;;;;;;;5080652;28;20439;-46
2023/03/01 03:15:55;;;;;;;11.57;9.75;;;;;;;;;;5102211;28;20161;-46
2023/03/01 03:18:21;;;;;;;14.60;10.52;;;;;;;;;;5102430;28;20057;-47
2023/03/01 03:20:47;;;;;;;15.18;9.85;;;;;;;;;;5098670;28;20032;-47
2023/03/01 03:23:13;;;;;;;12.18;10.25;;;;;;;;;;5099642;28;20028;-47
2023/03/01 03:25:41;;;;;;;12.95;10.73;;;;;;;;;;5098909;28;20092;-46
2023/03/01 03:28:10;;;;;;;11.48;9.82;;;;;;;;;;5101574;28;20034;-49
2023/03/01 03:30:46;;;;;;;14.38;10.40;;;;;;;;;;5100835;28;20020;-48
2023/03/01 03:33:12;;;;;;;15.30;10.75;;;;;;;;;;5097619;28;20046;-47
2023/03/01 03:35:47;;;;;;;14.57;11.20;;;;;;;;;;5100360;28;20024;-46
2023/03/01 03:38:15;;;;;;;12.40;10.48;;;;;;;;;;5099557;28;20760;-45
2023/03/01 03:40:44;;;;;;;14.63;11.02;;;;;;;;;;5099209;28;20043;-45
2023/03/01 03:43:14;;;;;;;11.75;10.40;;;;;;;;;;5101626;28;20051;-50
2023/03/01 03:45:39;;;;;;;14.10;11.15;;;;;;;;;;5105841;27;20035;-49
2023/03/01 03:48:09;;;;;;;15.45;10.70;;;;;;;;;;5100251;28;20043;-47
2023/03/01 03:50:36;;;;;;;12.05;10.27;;;;;;;;;;5097576;28;20055;-51
2023/03/01 03:53:03;;;;;;;13.57;11.10;;;;;;;;;;5101264;28;20036;-44
2023/03/01 03:55:30;;;;;;;12.05;10.57;;;;;;;;;;5099105;28;20063;-50
2023/03/01 03:58:00;;;;;;;14.20;10.20;;;;;;;;;;5101005;28;20064;-49
2023/03/01 04:00:29;;;;;;;14.02;11.18;;;;;;;;;;5101842;28;20063;-46
2023/03/01 04:02:56;;;;;;;14.68;10.60;;;;;;;;;;5100052;28;20080;-50
2023/03/01 04:05:22;;;;;;;15.10;10.90;;;;;;;;;;5095130;28;20044;-46
2023/03/01 04:07:47;;;;;;;13.02;10.40;;;;;;;;;;5099050;28;20040;-51
2023/03/01 04:10:17;;;;;;;17.20;11.73;;;;;;;;;;5082682;28;20181;-48
2023/03/01 04:12:46;;;;;;;13.35;10.65;;;;;;;;;;5077791;28;20040;-45
2023/03/01 04:15:15;;;;;;;12.98;10.57;;;;;;;;;;5097665;28;20109;-50
2023/03/01 04:17:53;;;;;;;17.88;10.63;;;;;;;;;;5102884;28;20034;-51
2023/03/01 04:20:25;;;;;;;13.20;10.77;;;;;;;;;;5097721;28;20088;-51
2023/03/01 04:23:20;;;;;;;15.07;11.48;;;;;;;;;;5098736;28;20035;-51
2023/03/01 04:26:01;;;;;;;11.18;10.05;;;;;;;;;;5096520;28;20058;-51
2023/03/01 04:28:36;;;;;;;16.42;10.63;;;;;;;;;;5097404;28;20035;-52
2023/03/01 04:31:13;;;;;;;15.07;11.18;;;;;;;;;;5101550;28;20030;-51
2023/03/01 04:33:43;;;;;;;14.73;11.10;;;;;;;;;;5095744;28;20134;-44
2023/03/01 04:36:16;;;;;;;13.30;10.77;;;;;;;;;;5100421;28;20039;-47
2023/03/01 04:38:42;;;;;;;15.68;11.43;;;;;;;;;;5103525;28;20097;-45
2023/03/01 04:41:09;;;;;;;13.85;11.63;;;;;;;;;;5100145;28;20533;-48
2023/03/01 04:43:36;;;;;;;15.57;11.88;;;;;;;;;;5101159;28;20032;-45
2023/03/01 04:46:03;;;;;;;14.48;11.88;;;;;;;;;;5102401;28;20061;-50
2023/03/01 04:48:36;;;;;;;14.10;10.85;;;;;;;;;;5098105;28;20547;-45
2023/03/01 04:51:02;;;;;;;15.82;11.07;;;;;;;;;;5101276;28;20031;-45
2023/03/01 04:53:28;;;;;;;14.00;11.23;;;;;;;;;;5108708;28;20035;-44
2023/03/01 04:55:55;;;;;;;13.75;11.02;;;;;;;;;;5099921;28;20028;-46
2023/03/01 04:58:23;;;;;;;15.77;11.65;;;;;;;;;;5104257;28;20053;-45
2023/03/01 05:00:55;;;;;;;13.82;11.57;;;;;;;;;;5095836;28;20024;-44
2023/03/01 05:03:20;;;;;;;15.20;12.07;;;;;;;;;;5102657;28;20028;-44
2023/03/01 05:05:49;;;;;;;13.13;11.32;;;;;;;;;;5102398;28;20532;-45
2023/03/01 05:08:18;;;;;;;13.23;11.32;;;;;;;;;;5103994;28;20476;-44
2023/03/01 05:10:48;;;;;;;15.63;12.07;;;;;;;;;;5102376;28;20049;-44
2023/03/01 05:13:20;;;;;;;13.25;11.25;;;;;;;;;;5099717;27;20044;-44
2023/03/01 05:15:56;;;;;;;12.30;10.52;;;;;;;;;;5099619;28;20383;-47
2023/03/01 05:18:28;;;;;;;12.88;10.77;;;;;;;;;;5103244;27;20039;-50
2023/03/01 05:20:58;;;;;;;15.57;10.98;;;;;;;;;;5102803;28;20051;-45
2023/03/01 05:23:24;;;;;;;13.25;11.02;;;;;;;;;;5101573;28;20488;-44
2023/03/01 05:25:52;;;;;;;13.15;10.63;;;;;;;;;;5099099;28;20032;-44
2023/03/01 05:28:22;;;;;;;12.80;10.52;;;;;;;;;;5102747;28;20035;-47
2023/03/01 05:30:47;;;;;;;16.45;12.77;;;;;;;;;;5100844;28;20031;-46
2023/03/01 05:33:13;;;;;;;16.65;10.77;;;;;;;;;;5098327;28;20024;-48
2023/03/01 05:35:45;;;;;;;15.50;11.93;;;;;;;;;;5101665;28;20110;-45
2023/03/01 05:38:13;;;;;;;31.90;22.48;;;;;;;;;;5095703;28;20111;-44
2023/03/01 05:40:48;;;;;;;26.75;20.00;;;;;;;;;;5101785;28;20028;-46
2023/03/01 05:43:16;;;;;;;26.27;17.63;;;;;;;;;;5099328;28;20024;-44
2023/03/01 05:45:42;;;;;;;16.98;12.98;;;;;;;;;;5103203;28;20032;-44
2023/03/01 05:48:15;;;;;;;25.35;17.67;;;;;;;;;;5096317;28;20438;-44
2023/03/01 05:50:44;;;;;;;30.63;23.10;;;;;;;;;;5103407;28;20513;-44
2023/03/01 05:53:20;;;;;;;20.02;15.07;;;;;;;;;;5101711;28;20050;-44
2023/03/01 05:55:47;;;;;;;18.10;14.05;;;;;;;;;;5100598;28;20448;-44
2023/03/01 05:58:24;;;;;;;19.40;13.82;;;;;;;;;;5099829;28;20499;-46
2023/03/01 06:00:49;;;;;;;15.55;12.70;;;;;;;;;;5106701;28;20031;-45
2023/03/01 06:03:18;;;;;;;21.00;13.98;;;;;;;;;;5101877;28;20121;-44
2023/03/01 06:05:44;;;;;;;14.82;12.60;;;;;;;;;;5102219;28;20024;-44
2023/03/01 06:08:10;;;;;;;15.15;12.60;;;;;;;;;;5102918;28;20038;-46
2023/03/01 06:10:36;;;;;;;19.85;13.75;;;;;;;;;;5100651;28;20024;-50
2023/03/01 06:13:02;;;;;;;20.65;15.65;;;;;;;;;;5103174;28;20511;-44
2023/03/01 06:15:27;;;;;;;14.35;11.93;;;;;;;;;;5099999;28;20036;-47
2023/03/01 06:17:56;;;;;;;18.15;13.32;;;;;;;;;;5094645;28;20028;-46
2023/03/01 06:20:24;;;;;;;17.60;12.00;;;;;;;;;;5096963;27;20044;-45
2023/03/01 06:22:49;;;;;;;20.60;14.95;;;;;;;;;;5099198;28;20030;-44
2023/03/01 06:25:18;;;;;;;20.80;14.95;;;;;;;;;;5102712;27;20054;-44
2023/03/01 06:27:49;;;;;;;26.17;20.30;;;;;;;;;;5098970;28;20023;-45
2023/03/01 06:30:17;;;;;;;20.77;14.75;;;;;;;;;;5102271;27;20036;-44
2023/03/01 06:32:43;;;;;;;21.98;15.10;;;;;;;;;;5100514;28;20110;-44
2023/03/01 06:35:10;;;;;;;22.13;15.00;;;;;;;;;;5098669;27;20438;-44
2023/03/01 06:37:36;;;;;;;20.40;15.85;;;;;;;;;;5100814;28;20040;-49
2023/03/01 06:40:11;;;;;;;19.08;14.13;;;;;;;;;;5100730;28;20545;-44
2023/03/01 06:42:38;;;;;;;22.67;15.77;;;;;;;;;;5098776;28;20476;-44
2023/03/01 06:45:13;;;;;;;18.67;15.15;;;;;;;;;;5100842;28;20120;-44
2023/03/01 06:47:38;;;;;;;18.65;15.25;;;;;;;;;;5103779;28;20038;-47
2023/03/01 06:50:17;;;;;;;19.83;15.23;;;;;;;;;;5100325;28;20407;-45
2023/03/01 06:52:44;;;;;;;19.50;14.90;;;;;;;;;;5102723;28;20038;-44
2023/03/01 06:55:16;;;;;;;18.48;14.77;;;;;;;;;;5096743;28;20036;-45
2023/03/01 06:57:44;;;;;;;18.60;14.67;;;;;;;;;;5099646;28;20039;-44
2023/03/01 07:00:20;;;;;;;20.00;15.25;;;;;;;;;;5097987;28;20834;-46
2023/03/01 07:02:51;;;;;;;22.70;15.20;;;;;;;;;;5094682;28;20115;-48
2023/03/01 07:05:20;;;;;;;20.40;15.45;;;;;;;;;;5098610;28;20035;-44
2023/03/01 07:07:45;;;;;;;15.40;12.90;;;;;;;;;;5097817;28;20035;-47
2023/03/01 07:10:23;;;;;;;20.10;13.57;;;;;;;;;;5094111;28;20499;-48
2023/03/01 07:12:55;;;;;;;19.38;14.43;;;;;;;;;;5096244;28;20036;-47
2023/03/01 07:15:20;;;;;;;21.25;15.70;;;;;;;;;;5100165;28;20050;-44
2023/03/01 07:17:47;;;;;;;24.58;18.20;;;;;;;;;;5099693;28;20027;-44
2023/03/01 07:20:13;;;;;;;25.65;18.35;;;;;;;;;;5098458;28;20032;-47
2023/03/01 07:22:42;;;;;;;27.52;19.50;;;;;;;;;;5100024;28;20503;-48
2023/03/01 07:25:10;;;;;;;34.33;21.02;;;;;;;;;;5101241;28;20036;-47
2023/03/01 07:27:36;;;;;;;24.13;16.65;;;;;;;;;;5103560;28;20020;-47
2023/03/01 07:30:02;;;;;;;25.85;17.83;;;;;;;;;;5094480;28;20024;-46
2023/03/01 07:32:28;;;;;;;33.25;19.88;;;;;;;;;;5097087;28;20055;-50
2023/03/01 07:34:53;;;;;;;48.00;24.95;;;;;;;;;;5099309;28;20059;-47
2023/03/01 07:37:27;;;;;;;31.95;20.85;;;;;;;;;;5099948;28;20027;-49
2023/03/01 07:39:53;;;;;;;32.63;20.40;;;;;;;;;;5099503;28;20040;-44
2023/03/01 07:42:18;;;;;;;37.85;19.10;;;;;;;;;;5096451;28;20100;-47
2023/03/01 07:44:43;;;;;;;28.30;19.20;;;;;;;;;;5097969;28;20038;-46
2023/03/01 07:47:09;;;;;;;30.02;17.42;;;;;;;;;;5102018;28;20597;-44
2023/03/01 07:49:46;;;;;;;18.90;15.80;;;;;;;;;;5104732;28;20057;-45
2023/03/01 07:52:12;;;;;;;23.50;15.20;;;;;;;;;;5096182;28;20032;-50
2023/03/01 07:54:38;;;;;;;22.13;15.63;;;;;;;;;;5096970;28;20042;-48
2023/03/01 07:57:03;;;;;;;23.77;14.30;;;;;;;;;;5101155;28;20503;-50
2023/03/01 07:59:29;;;;;;;22.67;15.60;;;;;;;;;;5099450;28;20050;-47
2023/03/01 08:01:57;;;;;;;18.88;14.63;;;;;;;;;;5097081;28;20028;-46
2023/03/01 08:04:24;;;;;;;18.20;14.07;;;;;;;;;;5098068;27;20046;-47
2023/03/01 08:06:50;;;;;;;17.02;13.70;;;;;;;;;;5102057;28;20357;-53
2023/03/01 08:09:21;;;;;;;18.70;14.40;;;;;;;;;;5101661;28;20067;-46
2023/03/01 08:11:47;;;;;;;17.77;14.18;;;;;;;;;;5094823;28;20032;-48
2023/03/01 08:14:18;;;;;;;18.33;15.18;;;;;;;;;;5101031;28;20039;-47
2023/03/01 08:16:44;;;;;;;22.02;13.82;;;;;;;;;;5101001;28;20088;-50
2023/03/01 08:19:15;;;;;;;20.92;14.63;;;;;;;;;;5098017;28;20040;-48
2023/03/01 08:21:41;;;;;;;20.88;14.50;;;;;;;;;;5099165;28;20035;-47
2023/03/01 08:24:07;;;;;;;20.83;15.02;;;;;;;;;;5102497;28;20032;-52
2023/03/01 08:26:36;;;;;;;18.73;14.95;;;;;;;;;;5105341;28;20472;-45
2023/03/01 08:29:02;;;;;;;20.83;14.68;;;;;;;;;;5104767;28;20523;-48
2023/03/01 08:31:40;;;;;;;17.63;14.48;;;;;;;;;;5105806;28;20035;-47
2023/03/01 08:34:09;;;;;;;18.40;14.55;;;;;;;;;;5105760;28;20028;-45
2023/03/01 08:36:37;;;;;;;23.52;15.88;;;;;;;;;;5103999;28;20080;-48
2023/03/01 08:39:04;;;;;;;24.05;17.00;;;;;;;;;;5102782;28;20100;-46
2023/03/01 08:41:29;;;;;;;25.85;16.20;;;;;;;;;;5105168;28;20055;-48
2023/03/01 08:44:01;;;;;;;19.40;15.15;;;;;;;;;;5102263;28;20500;-44
2023/03/01 08:46:45;;;;;;;17.95;14.45;;;;;;;;;;5104425;28;20039;-46
2023/03/01 08:49:13;;;;;;;22.02;15.48;;;;;;;;;;5105614;28;20054;-47
2023/03/01 08:51:39;;;;;;;20.85;15.77;;;;;;;;;;5104907;28;20032;-49
2023/03/01 08:54:16;;;;;;;21.63;15.02;;;;;;;;;;5099498;27;20110;-45
2023/03/01 08:56:42;;;;;;;18.25;14.65;;;;;;;;;;5105709;28;20035;-47
2023/03/01 08:59:08;;;;;;;19.02;13.70;;;;;;;;;;5104608;28;20036;-44
2023/03/01 09:01:34;;;;;;;20.80;15.73;;;;;;;;;;5103413;28;20078;-45
2023/03/01 09:03:59;;;;;;;23.50;14.93;;;;;;;;;;5104952;28;20444;-45
2023/03/01 09:06:32;;;;;;;19.88;15.35;;;;;;;;;;5104702;27;20392;-43
2023/03/01 09:08:58;;;;;;;17.10;14.48;;;;;;;;;;5103894;28;20100;-49
2023/03/01 09:11:24;;;;;;;19.92;14.88;;;;;;;;;;5104521;28;20028;-46
2023/03/01 09:13:55;;;;;;;23.10;16.10;;;;;;;;;;5107580;28;20606;-44
2023/03/01 09:16:21;;;;;;;17.63;14.48;;;;;;;;;;5104826;28;20046;-51
2023/03/01 09:18:52;;;;;;;23.02;17.38;;;;;;;;;;5102588;28;20085;-45
2023/03/01 09:21:20;;;;;;;19.17;15.45;;;;;;;;;;5101732;28;20046;-47
2023/03/01 09:23:56;;;;;;;19.02;14.77;;;;;;;;;;5104002;28;20504;-45
2023/03/01 09:26:23;;;;;;;21.67;15.40;;;;;;;;;;5103490;28;20088;-48
2023/03/01 09:28:50;;;;;;;17.00;14.45;;;;;;;;;;5101944;28;20035;-49
2023/03/01 09:31:17;;;;;;;21.25;15.05;;;;;;;;;;5104181;28;20031;-46
2023/03/01 09:33:46;;;;;;;19.85;14.57;;;;;;;;;;5102939;27;20620;-44
2023/03/01 09:36:16;;;;;;;16.20;13.60;;;;;;;;;;5098847;28;20485;-48
2023/03/01 09:38:41;;;;;;;20.58;14.48;;;;;;;;;;5101742;28;20037;-45
2023/03/01 09:41:31;;;;;;;17.60;13.68;;;;;;;;;;5103086;28;20100;-45
2023/03/01 09:44:04;;;;;;;16.73;14.10;;;;;;;;;;5102229;28;20430;-45
2023/03/01 09:46:37;;;;;;;17.55;13.68;;;;;;;;;;5100672;28;20027;-47
2023/03/01 09:49:12;;;;;;;16.27;13.27;;;;;;;;;;5106308;28;20043;-49
2023/03/01 09:51:37;;;;;;;18.27;14.35;;;;;;;;;;5105067;28;20695;-44
2023/03/01 09:54:16;;;;;;;17.75;14.57;;;;;;;;;;5098672;28;20044;-45
2023/03/01 09:56:51;;;;;;;18.13;13.65;;;;;;;;;;5099295;28;20039;-45
2023/03/01 09:59:30;;;;;;;20.92;14.48;;;;;;;;;;5101328;28;20044;-45
2023/03/01 10:02:00;;;;;;;16.65;12.98;;;;;;;;;;5100576;28;20047;-48
2023/03/01 10:04:30;;;;;;;20.55;14.32;;;;;;;;;;5102404;27;20069;-46
2023/03/01 10:07:11;;;;;;;15.43;13.57;;;;;;;;;;5100511;28;20024;-46
2023/03/01 10:09:44;;;;;;;16.58;14.32;;;;;;;;;;5104527;28;20043;-49
2023/03/01 10:12:15;;;;;;;17.65;13.75;;;;;;;;;;5100179;28;20015;-45
2023/03/01 10:14:59;;;;;;;19.33;15.15;;;;;;;;;;5101190;28;20140;-50
2023/03/01 10:17:46;;;;;;;22.77;13.68;;;;;;;;;;5101846;28;20461;-46
2023/03/01 10:20:25;;;;;;;19.40;13.35;;;;;;;;;;5094977;28;20040;-45
2023/03/01 10:22:52;;;;;;;19.38;13.55;;;;;;;;;;5102540;28;20042;-46
2023/03/01 10:25:41;;;;;;;16.77;13.88;;;;;;;;;;5103191;27;20039;-44
2023/03/01 10:28:44;;;;;;;18.17;13.65;;;;;;;;;;5100672;28;20019;-47
2023/03/01 10:31:21;;;;;;;18.02;13.95;;;;;;;;;;5097404;28;20082;-45
2023/03/01 10:33:51;;;;;;;17.80;13.90;;;;;;;;;;5096192;28;20085;-45
2023/03/01 10:36:17;;;;;;;17.83;13.88;;;;;;;;;;5103934;28;20026;-44
2023/03/01 10:38:53;;;;;;;22.13;15.07;;;;;;;;;;5101719;28;20036;-48
2023/03/01 10:41:20;;;;;;;17.83;14.65;;;;;;;;;;5098963;28;20736;-46
2023/03/01 10:43:47;;;;;;;16.25;14.40;;;;;;;;;;5100467;28;20116;-46
2023/03/01 10:46:43;;;;;;;21.33;13.60;;;;;;;;;;5099071;28;20479;-49
2023/03/01 10:49:22;;;;;;;15.48;13.05;;;;;;;;;;5100090;28;20035;-48
2023/03/01 10:51:52;;;;;;;16.98;13.43;;;;;;;;;;5097567;28;20088;-52
2023/03/01 10:54:28;;;;;;;16.73;13.05;;;;;;;;;;5100152;28;20139;-45
2023/03/01 10:56:59;;;;;;;21.83;13.88;;;;;;;;;;5102466;28;20039;-49
2023/03/01 10:59:31;;;;;;;14.43;12.93;;;;;;;;;;5101784;28;20035;-48
2023/03/01 11:02:18;;;;;;;16.70;13.05;;;;;;;;;;5102907;28;20019;-47
2023/03/01 11:05:15;;;;;;;16.50;12.82;;;;;;;;;;5100968;27;20043;-45
2023/03/01 11:07:57;;;;;;;18.00;13.60;;;;;;;;;;5097858;28;20028;-51
2023/03/01 11:10:32;;;;;;;15.65;12.93;;;;;;;;;;5101562;28;20055;-44
2023/03/01 11:13:19;;;;;;;14.73;11.82;;;;;;;;;;5097440;28;20039;-51
2023/03/01 11:16:14;;;;;;;13.43;11.85;;;;;;;;;;5100960;28;20436;-48
2023/03/01 11:18:40;;;;;;;20.50;13.30;;;;;;;;;;5097051;28;20067;-44
2023/03/01 11:21:17;;;;;;;16.85;13.10;;;;;;;;;;5101456;28;20409;-48
2023/03/01 11:23:46;;;;;;;18.58;12.63;;;;;;;;;;5096824;28;20396;-45
2023/03/01 11:26:19;;;;;;;15.20;13.20;;;;;;;;;;5100591;28;20034;-44
2023/03/01 11:28:53;;;;;;;13.95;12.07;;;;;;;;;;5100796;27;20036;-45
2023/03/01 11:31:19;;;;;;;15.70;13.85;;;;;;;;;;5104357;28;20106;-47
2023/03/01 11:33:56;;;;;;;17.17;13.68;;;;;;;;;;5101463;28;20118;-45
2023/03/01 11:36:37;;;;;;;15.52;13.38;;;;;;;;;;5098861;28;20039;-47
2023/03/01 11:39:17;;;;;;;14.73;12.73;;;;;;;;;;5095738;28;22247;-49
2023/03/01 11:41:43;;;;;;;16.50;13.15;;;;;;;;;;5102779;28;20054;-44
2023/03/01 11:44:19;;;;;;;17.63;13.50;;;;;;;;;;5102213;28;20508;-47
2023/03/01 11:46:57;;;;;;;16.35;13.85;;;;;;;;;;5099670;28;20043;-47
2023/03/01 11:49:44;;;;;;;16.42;12.75;;;;;;;;;;5094932;28;20051;-50
2023/03/01 11:52:23;;;;;;;16.23;13.23;;;;;;;;;;5098154;28;20511;-50
2023/03/01 11:55:16;;;;;;;16.27;13.45;;;;;;;;;;5100560;28;20473;-52
2023/03/01 11:58:00;;;;;;;20.67;13.48;;;;;;;;;;5099871;28;20096;-50
2023/03/01 12:00:53;;;;;;;15.52;13.48;;;;;;;;;;5096186;28;20524;-52
2023/03/01 12:03:47;;;;;;;15.77;12.73;;;;;;;;;;5097316;28;20679;-47
2023/03/01 12:06:24;;;;;;;17.42;13.88;;;;;;;;;;5099171;28;20047;-52
2023/03/01 12:09:14;;;;;;;16.38;14.45;;;;;;;;;;5099469;28;20434;-49
2023/03/01 12:11:49;;;;;;;18.42;13.45;;;;;;;;;;5101382;28;20112;-52
2023/03/01 12:14:18;;;;;;;15.18;12.55;;;;;;;;;;5098631;28;20101;-48
2023/03/01 12:17:05;;;;;;;15.38;12.65;;;;;;;;;;5103130;28;20559;-47
2023/03/01 12:19:50;;;;;;;19.40;12.13;;;;;;;;;;5098865;28;20048;-48
2023/03/01 12:22:35;;;;;;;16.50;13.18;;;;;;;;;;5099982;28;20032;-47
2023/03/01 12:25:37;;;;;;;15.30;13.70;;;;;;;;;;5099889;28;20114;-51
2023/03/01 12:28:24;;;;;;;16.40;12.82;;;;;;;;;;5103684;28;20480;-50
2023/03/01 12:30:49;;;;;;;21.02;13.23;;;;;;;;;;5101068;28;20094;-48
2023/03/01 12:33:20;;;;;;;19.67;13.82;;;;;;;;;;5097396;28;20024;-45
2023/03/01 12:36:17;;;;;;;17.52;14.00;;;;;;;;;;5101518;28;20032;-47
2023/03/01 12:39:12;;;;;;;15.48;13.82;;;;;;;;;;5100570;28;20088;-44
2023/03/01 12:41:45;;;;;;;21.90;14.30;;;;;;;;;;5097563;28;20085;-44
2023/03/01 12:44:20;;;;;;;20.20;14.73;;;;;;;;;;5096315;28;20044;-45
2023/03/01 12:46:57;;;;;;;17.15;14.07;;;;;;;;;;5101034;28;20032;-44
2023/03/01 12:49:35;;;;;;;15.65;13.95;;;;;;;;;;5101563;28;20465;-44
2023/03/01 12:52:13;;;;;;;16.75;14.25;;;;;;;;;;5100994;28;20031;-44
2023/03/01 12:54:39;;;;;;;16.73;13.65;;;;;;;;;;5096421;28;20496;-46
2023/03/01 12:57:25;;;;;;;21.92;14.13;;;;;;;;;;5096596;28;20055;-44
2023/03/01 13:00:26;;;;;;;17.63;14.25;;;;;;;;;;5095787;28;20043;-44
2023/03/01 13:03:36;;;;;;;18.77;14.27;;;;;;;;;;5095810;28;20031;-46
2023/03/01 13:06:37;;;;;;;15.73;13.75;;;;;;;;;;5096831;28;20135;-45
2023/03/01 13:09:21;;;;;;;15.70;13.32;;;;;;;;;;5100903;28;20433;-44
2023/03/01 13:11:46;;;;;;;19.27;13.18;;;;;;;;;;5102153;28;20024;-44
2023/03/01 13:14:22;;;;;;;18.58;13.20;;;;;;;;;;5101953;28;20042;-46
2023/03/01 13:16:49;;;;;;;14.95;13.13;;;;;;;;;;5102966;28;20214;-45
2023/03/01 13:19:17;;;;;;;20.65;13.65;;;;;;;;;;5101728;28;20032;-46
2023/03/01 13:21:45;;;;;;;23.38;12.95;;;;;;;;;;5100492;28;20026;-44
2023/03/01 13:24:41;;;;;;;18.10;13.63;;;;;;;;;;5100899;28;20047;-44
2023/03/01 13:27:07;;;;;;;20.02;13.05;;;;;;;;;;5107446;28;20043;-44
2023/03/01 13:29:54;;;;;;;16.80;13.45;;;;;;;;;;5098963;28;20044;-48
2023/03/01 13:32:28;;;;;;;16.13;13.90;;;;;;;;;;5102145;28;20038;-44
2023/03/01 13:35:19;;;;;;;23.05;12.32;;;;;;;;;;5097828;28;20040;-46
2023/03/01 13:37:45;;;;;;;18.10;13.60;;;;;;;;;;5079611;28;20127;-44
2023/03/01 13:40:18;;;;;;;17.38;13.27;;;;;;;;;;5081936;28;20036;-45
2023/03/01 13:43:26;;;;;;;15.38;12.32;;;;;;;;;;5082494;28;20032;-44
2023/03/01 13:45:52;;;;;;;16.73;13.30;;;;;;;;;;5077738;28;20036;-44
2023/03/01 13:48:24;;;;;;;21.95;12.70;;;;;;;;;;5081414;28;20036;-45
2023/03/01 13:51:01;;;;;;;17.60;13.32;;;;;;;;;;5083866;28;20520;-44
2023/03/01 13:53:31;;;;;;;16.70;13.00;;;;;;;;;;5084836;28;20056;-44
2023/03/01 13:56:15;;;;;;;16.88;12.50;;;;;;;;;;5082011;28;20036;-46
2023/03/01 13:58:50;;;;;;;14.70;12.70;;;;;;;;;;5080232;28;20138;-46
2023/03/01 14:01:24;;;;;;;17.80;12.68;;;;;;;;;;5083932;28;20068;-45
2023/03/01 14:03:50;;;;;;;16.13;13.10;;;;;;;;;;5081444;28;20600;-47
2023/03/01 14:06:19;;;;;;;16.02;12.82;;;;;;;;;;5079911;28;20032;-44
2023/03/01 14:08:46;;;;;;;16.73;12.38;;;;;;;;;;5081823;28;20047;-46
2023/03/01 14:11:47;;;;;;;16.27;13.00;;;;;;;;;;5082026;28;20403;-45
2023/03/01 14:14:38;;;;;;;19.40;12.70;;;;;;;;;;5089970;28;20047;-44
2023/03/01 14:17:29;;;;;;;14.63;11.65;;;;;;;;;;5100392;28;20059;-44
2023/03/01 14:19:58;;;;;;;14.45;12.95;;;;;;;;;;5099785;28;20036;-48
2023/03/01 14:22:27;;;;;;;15.45;12.52;;;;;;;;;;5100399;28;20032;-44
2023/03/01 14:24:58;;;;;;;13.45;12.10;;;;;;;;;;5104549;28;20522;-44
2023/03/01 14:27:27;;;;;;;14.75;12.77;;;;;;;;;;5098351;28;20353;-44
2023/03/01 14:29:59;;;;;;;15.88;13.05;;;;;;;;;;5102469;28;20055;-46
2023/03/01 14:32:28;;;;;;;14.65;12.32;;;;;;;;;;5102802;28;20028;-45
2023/03/01 14:34:58;;;;;;;18.48;13.82;;;;;;;;;;5102191;27;20031;-45
2023/03/01 14:37:32;;;;;;;22.45;13.02;;;;;;;;;;5096871;28;20032;-45
2023/03/01 14:40:03;;;;;;;16.83;11.98;;;;;;;;;;5103805;28;20031;-44
2023/03/01 14:42:34;;;;;;;13.07;11.38;;;;;;;;;;5096550;28;20016;-45
2023/03/01 14:45:13;;;;;;;18.38;12.55;;;;;;;;;;5102301;28;20618;-45
2023/03/01 14:47:39;;;;;;;15.40;11.65;;;;;;;;;;5100739;28;20027;-44